Hovedside
METAR-TAF:

METAR-TAF

Lufthavner :

Oljeplattform

Troll C, Norge

breddegrad: 60-53-09N, lengdegrad: 3-36-35E, høyde over havet: 20 m

Gjeldene værobservasjon

Denne rapporten ble laget for 16 minutter siden, klokken 13:50 UTC
Vind 15 kt fra Sør-sørøst
Temperatur 15°C
Luftfuktighet 82%
Trykk 1019 hPa
Sikt 10 km eller mer
ingen skyer under 1500 m og ingen bygeskyer

METAR: ENQC 181350Z AUTO 16015KT CAVOK 15/12 Q1019 W///S2

Tid: 16:06 (14:06 UTC)


TAF: fraværende

Værobservasjoner og værvarsel for over 4000 flyplasser (METAR- og TAF-rapporter).

Tilgjengelige stasjoner er representert av de røde og gule prikkene på kartet.

Hold musepekeren over prikken for å se navnet på stasjonen.

Klikk så for å se værobservasjoner og -varsler.

For å forandre kartet kan du klikke på den grønne knappen med svart kryss for å zoome inn, på den grønne knappen med strek for å zoome ut, eller på de grønne pilene for å se tilstøtende kart.


METAR-TAF: